Flight Track Log - Related Links

Times and Time Zones

All times are in EDT time to prevent confusion due to time zone crossing. See the USC105 flight status page for this flight to view local times or setup timezone preferences in your user account.

Time Position Orientation Groundspeed Altitude Reporting Facility
EDT Latitude Longitude Course Direction KTS MPH feet Rate Location/Type
Tue 12:21:20 AM 42.2064 -83.5828 240° Southwest 107 123 2,900  Level Cleveland Center
Tue 12:22:27 AM 42.2047 -83.6414 268° West 145 167 3,700 694 Climbing Cleveland Center
Tue 12:23:21 AM 42.2033 -83.6947 268° West 153 176 4,300 574 Climbing Cleveland Center
Tue 12:24:22 AM 42.2017 -83.7564 268° West 158 182 4,800 455 Climbing Cleveland Center
Tue 12:26:52 AM 42.2022 -83.8939 270° West 160 184 5,900 343 Climbing Chicago Center
Tue 12:27:52 AM 42.2003 -83.9578 268° West 166 191 6,000  Climbing Chicago Center
Tue 12:28:53 AM 42.1961 -84.0231 265° West 171 197 5,900 -50 Descending Chicago Center
Tue 12:29:53 AM 42.1939 -84.0883 267° West 174 200 5,900  Level Chicago Center
Tue 12:30:54 AM 42.1894 -84.1528 265° West 174 200 5,900  Level Chicago Center
Tue 12:31:55 AM 42.1836 -84.2186 263° West 173 199 5,900  Level Chicago Center
Tue 12:32:55 AM 42.1797 -84.2839 265° West 175 201 5,900  Level Chicago Center
Tue 12:33:56 AM 42.1767 -84.3492 266° West 175 201 5,900  Level Chicago Center
Tue 12:34:56 AM 42.1728 -84.4133 265° West 174 200 5,900  Level Chicago Center
Tue 12:35:57 AM 42.1700 -84.4767 267° West 171 197 5,900  Level Chicago Center
Tue 12:36:57 AM 42.1658 -84.5519 266° West 174 200 5,900  Level Chicago Center
Tue 12:37:58 AM 42.1622 -84.6175 266° West 175 201 5,900  Level Chicago Center
Tue 12:38:58 AM 42.1589 -84.6828 266° West 176 203 5,900  Level Chicago Center
Tue 12:39:59 AM 42.1547 -84.7467 265° West 173 199 5,900  Level Chicago Center
Tue 12:40:59 AM 42.1508 -84.8111 265° West 173 199 5,900  Level Chicago Center
Tue 12:42:00 AM 42.1478 -84.8761 266° West 174 200 5,900  Level Chicago Center
Tue 12:43:00 AM 42.1436 -84.9411 265° West 175 201 5,900  Level Chicago Center
Tue 12:44:01 AM 42.1403 -85.0047 266° West 173 199 5,900  Level Chicago Center
Tue 12:45:01 AM 42.1369 -85.0681 266° West 171 197 5,900  Level Chicago Center
Tue 12:46:01 AM 42.1336 -85.1308 266° West 170 196 5,900  Level Chicago Center
Tue 12:47:02 AM 42.1294 -85.1939 265° West 170 196 5,900  Level Chicago Center
Tue 12:48:02 AM 42.1258 -85.2575 266° West 171 197 5,900  Level Chicago Center
Tue 12:49:02 AM 42.1219 -85.3217 265° West 173 199 5,900  Level Chicago Center
Tue 12:50:03 AM 42.1178 -85.3844 265° West 171 197 5,900  Level Chicago Center
Tue 12:51:03 AM 42.1136 -85.4483 265° West 171 197 5,900  Level Chicago Center
Tue 12:52:04 AM 42.1100 -85.5125 266° West 173 199 5,900  Level Chicago Center
Tue 12:53:04 AM 42.1061 -85.5767 265° West 173 199 5,900  Level Chicago Center
Tue 12:54:04 AM 42.1017 -85.6419 265° West 174 200 5,900  Level Chicago Center
Tue 12:55:05 AM 42.0969 -85.7192 265° West 174 200 5,900  Level Chicago Center
Tue 12:56:05 AM 42.0922 -85.7828 264° West 172 198 5,900  Level Chicago Center
Tue 12:57:05 AM 42.0886 -85.8456 266° West 170 196 5,900  Level Chicago Center
Tue 12:58:06 AM 42.0850 -85.9075 266° West 169 194 5,900 48 Level Chicago Center
Tue 12:59:09 AM 42.0803 -85.9719 264° West 171 197 6,000 48 Climbing Chicago Center
Tue 01:00:10 AM 42.0758 -86.0347 265° West 171 197 6,000  Level Chicago Center
Tue 01:01:10 AM 42.0717 -86.0986 265° West 171 197 6,000  Level Chicago Center
Tue 01:02:10 AM 42.0675 -86.1611 265° West 170 196 6,000  Level Chicago Center
Tue 01:03:11 AM 42.0636 -86.2236 265° West 169 194 6,000  Level Chicago Center
Tue 01:04:11 AM 42.0594 -86.2850 265° West 166 191 6,000 -50 Level Chicago Center
Tue 01:05:12 AM 42.0550 -86.3447 264° West 163 188 5,900  Descending Chicago Center
Tue 01:06:12 AM 42.0508 -86.4044 265° West 162 186 6,000 50 Climbing Chicago Center
Tue 01:07:12 AM 42.0469 -86.4642 265° West 161 185 6,000  Level Chicago Center
Tue 01:08:13 AM 42.0419 -86.5242 264° West 161 185 6,000  Level Chicago Center
Tue 01:09:13 AM 42.0383 -86.5836 265° West 160 184 6,000  Level Chicago Center
Tue 01:10:14 AM 42.0339 -86.6431 264° West 161 185 6,000  Level Chicago Center
Tue 01:11:14 AM 42.0294 -86.7111 265° West 160 184 6,000  Level Chicago Center
Tue 01:12:14 AM 42.0253 -86.7700 265° West 159 183 6,000  Level Chicago Center
Tue 01:13:15 AM 42.0217 -86.8306 265° West 162 186 6,000  Level Chicago Center
Tue 01:14:15 AM 42.0161 -86.8892 263° West 160 184 6,000 -50 Level Chicago Center
Tue 01:15:15 AM 42.0128 -86.9497 266° West 162 186 5,900 -50 Descending Chicago Center
Tue 01:16:16 AM 42.0072 -87.0072 263° West 157 181 5,900  Level Chicago Center
Tue 01:17:16 AM 42.0031 -87.0678 265° West 161 185 5,900  Level Chicago Center
Tue 01:18:16 AM 41.9983 -87.1275 264° West 162 186 5,900  Level Chicago Center
Tue 01:19:17 AM 41.9936 -87.1894 264° West 168 193 5,900  Level Chicago Center
Tue 01:20:17 AM 41.9883 -87.2489 263° West 163 188 5,900  Level Chicago Center
Tue 01:21:18 AM 41.9842 -87.3106 265° West 167 192 5,900  Level Chicago Center
Tue 01:22:18 AM 41.9792 -87.3719 264° West 166 191 5,900  Level Chicago Center
Tue 01:22:44 AM 41.9833 -87.4167 277° West 165 190 5,900 -75 Level Chicago TRACON
Tue 01:23:38 AM 41.9667 -87.4667 246° West 167 192 5,800 -53 Descending Chicago TRACON
Tue 01:24:38 AM 41.9667 -87.5167 270° West 168 193 5,800 50 Level Chicago TRACON
Tue 01:25:38 AM 41.9667 -87.5833 270° West 166 191 5,900 50 Climbing Chicago TRACON
Tue 01:26:38 AM 41.9500 -87.6500 251° West 164 189 5,900 -100 Level Chicago TRACON
Tue 01:27:38 AM 41.9500 -87.7000 270° West 162 186 5,700 -350 Descending Chicago TRACON
Tue 01:28:38 AM 41.9500 -87.7667 270° West 177 204 5,200 -446 Descending Chicago TRACON
Tue 01:29:39 AM 41.9500 -87.8333 270° West 179 206 4,800 -446 Descending Chicago TRACON
Tue 01:30:39 AM 41.9500 -87.9000 270° West 185 213 4,300 -474 Descending Chicago TRACON
Tue 01:31:33 AM 41.9333 -87.9667 251° West 186 214 3,900 -421 Descending Chicago TRACON
Tue 01:32:33 AM 41.9333 -88.0333 270° West 178 205 3,500 -500 Descending Chicago TRACON
Tue 01:33:33 AM 41.9500 -88.1000 289° West 181 208 2,900 -661 Descending Chicago TRACON
Tue 01:34:22 AM 41.9431 -88.1467 259° West 178 205 2,300 -382 Descending Chicago Center
Tue 01:35:23 AM 41.9461 -88.2117 274° West 179 206 2,200 -545 Descending Chicago Center
Tue 01:36:23 AM 41.9275 -88.2419 230° Southwest 149 171 1,200 -600 Descending Chicago Center
Tue 01:37:23 AM 41.9031 -88.2561 203° Southwest 139 160 1,000 -200 Descending Chicago Center

Login

Don't have an account? Register now (free) for customized features, flight alerts, and more!